createdAt,value
2018-02-15T00:02:22.899Z,-2.90
2018-02-15T00:04:49.092Z,-2.90
2018-02-15T00:07:16.053Z,-2.90
2018-02-15T00:09:42.991Z,-3.00
2018-02-15T00:12:09.567Z,-3.00
2018-02-15T00:14:35.770Z,-3.00
2018-02-15T00:17:02.728Z,-3.00
2018-02-15T00:19:28.910Z,-3.10
2018-02-15T00:21:55.127Z,-3.10
2018-02-15T00:24:21.306Z,-3.10
2018-02-15T00:26:47.535Z,-3.10
2018-02-15T00:29:13.719Z,-3.20
2018-02-15T00:31:39.938Z,-3.20
2018-02-15T00:34:06.119Z,-3.20
2018-02-15T00:36:33.071Z,-3.20
2018-02-15T00:38:59.295Z,-3.20
2018-02-15T00:41:25.510Z,-3.20
2018-02-15T00:43:52.430Z,-3.30
2018-02-15T00:46:18.623Z,-3.30
2018-02-15T00:48:44.832Z,-3.30
2018-02-15T00:51:11.038Z,-3.30
2018-02-15T00:53:37.967Z,-3.20
2018-02-15T00:56:04.183Z,-3.20
2018-02-15T00:58:30.362Z,-3.20
2018-02-15T01:00:56.615Z,-3.20
2018-02-15T01:03:22.794Z,-3.10
2018-02-15T01:05:49.750Z,-3.10
2018-02-15T01:08:16.682Z,-3.10
2018-02-15T01:10:43.166Z,-3.20
2018-02-15T01:13:09.347Z,-3.20
2018-02-15T01:15:36.694Z,-3.20
2018-02-15T01:18:02.907Z,-3.20
2018-02-15T01:20:29.087Z,-3.10
2018-02-15T01:22:55.301Z,-3.20
2018-02-15T01:25:22.230Z,-3.10
2018-02-15T01:27:48.449Z,-3.10
2018-02-15T01:30:14.647Z,-3.10
2018-02-15T01:32:40.859Z,-3.20
2018-02-15T01:35:07.299Z,-3.20
2018-02-15T01:37:33.507Z,-3.10
2018-02-15T01:39:59.689Z,-3.10
2018-02-15T01:42:25.894Z,-3.10
2018-02-15T01:44:52.080Z,-3.10
2018-02-15T01:47:19.040Z,-3.10
2018-02-15T01:49:57.571Z,-3.10
2018-02-15T01:52:23.787Z,-3.10
2018-02-15T01:54:49.972Z,-3.10
2018-02-15T01:57:16.212Z,-3.10
2018-02-15T01:59:42.448Z,-3.10
2018-02-15T02:02:09.375Z,-3.10
2018-02-15T02:04:35.596Z,-3.10
2018-02-15T02:07:01.779Z,-3.10
2018-02-15T02:09:27.993Z,-3.10
2018-02-15T02:11:54.239Z,-3.10
2018-02-15T02:14:21.051Z,-3.10
2018-02-15T02:16:47.965Z,-3.10
2018-02-15T02:19:15.526Z,-3.10
2018-02-15T02:21:43.086Z,-3.10
2018-02-15T02:24:10.442Z,-3.10
2018-02-15T02:26:37.420Z,-3.20
2018-02-15T02:29:04.389Z,-3.20
2018-02-15T02:31:30.581Z,-3.20
2018-02-15T02:33:56.794Z,-3.20
2018-02-15T02:36:22.975Z,-3.20
2018-02-15T02:38:49.200Z,-3.20
2018-02-15T02:41:15.388Z,-3.10
2018-02-15T02:43:42.380Z,-3.10
2018-02-15T02:46:08.637Z,-3.10
2018-02-15T02:48:34.864Z,-3.00
2018-02-15T02:51:01.053Z,-3.00
2018-02-15T02:53:28.031Z,-2.90
2018-02-15T02:55:54.296Z,-2.90
2018-02-15T02:58:20.488Z,-2.90
2018-02-15T03:00:46.795Z,-2.90
2018-02-15T03:03:14.076Z,-2.80
2018-02-15T03:05:40.295Z,-2.90
2018-02-15T03:08:06.552Z,-2.80
2018-02-15T03:10:32.768Z,-2.90
2018-02-15T03:12:58.963Z,-2.90
2018-02-15T03:15:25.919Z,-2.90
2018-02-15T03:17:52.116Z,-2.90
2018-02-15T03:20:18.336Z,-2.80
2018-02-15T03:22:45.296Z,-2.80
2018-02-15T03:25:12.320Z,-2.80
2018-02-15T03:27:38.509Z,-2.80
2018-02-15T03:30:04.803Z,-2.80
2018-02-15T03:32:31.985Z,-2.80
2018-02-15T03:34:58.355Z,-2.80
2018-02-15T03:37:24.548Z,-2.80
2018-02-15T03:39:50.740Z,-2.80
2018-02-15T03:42:16.961Z,-2.80
2018-02-15T03:44:43.148Z,-2.80
2018-02-15T03:47:09.377Z,-2.80
2018-02-15T03:49:35.572Z,-2.70
2018-02-15T03:52:02.540Z,-2.70
2018-02-15T03:54:28.728Z,-2.70
2018-02-15T03:56:54.947Z,-2.70
2018-02-15T03:59:21.144Z,-2.70
2018-02-15T04:01:47.391Z,-2.70
2018-02-15T04:04:13.580Z,-2.70
2018-02-15T04:06:39.791Z,-2.60
2018-02-15T04:09:06.724Z,-2.50
2018-02-15T04:11:33.709Z,-2.50
2018-02-15T04:13:59.897Z,-2.50
2018-02-15T04:16:26.832Z,-2.40
2018-02-15T04:18:53.055Z,-2.40
2018-02-15T04:21:19.275Z,-2.30
2018-02-15T04:23:45.459Z,-2.30
2018-02-15T04:26:12.116Z,-2.20
2018-02-15T04:28:38.299Z,-2.30
2018-02-15T04:31:05.224Z,-2.20
2018-02-15T04:33:31.439Z,-2.30
2018-02-15T04:35:57.655Z,-2.20
2018-02-15T04:38:23.936Z,-2.20
2018-02-15T04:40:50.879Z,-2.20
2018-02-15T04:43:17.831Z,-2.30
2018-02-15T04:45:44.815Z,-2.30
2018-02-15T04:48:11.040Z,-2.30
2018-02-15T04:50:37.239Z,-2.20
2018-02-15T04:53:04.199Z,-2.30
2018-02-15T04:55:30.389Z,-2.30
2018-02-15T04:57:56.611Z,-2.30
2018-02-15T05:00:23.612Z,-2.20
2018-02-15T05:02:49.828Z,-2.30
2018-02-15T05:05:16.080Z,-2.30
2018-02-15T05:07:42.305Z,-2.30
2018-02-15T05:10:08.496Z,-2.30
2018-02-15T05:12:35.460Z,-2.20
2018-02-15T05:15:01.656Z,-2.30
2018-02-15T05:17:29.365Z,-2.30
2018-02-15T05:19:55.553Z,-2.30
2018-02-15T05:22:21.767Z,-2.30
2018-02-15T05:24:47.948Z,-2.20
2018-02-15T05:27:14.176Z,-2.20
2018-02-15T05:29:40.358Z,-2.20
2018-02-15T05:32:06.555Z,-2.20
2018-02-15T05:34:32.799Z,-2.10
2018-02-15T05:36:59.000Z,-2.10
2018-02-15T05:39:25.219Z,-2.10
2018-02-15T05:41:51.412Z,-2.10
2018-02-15T05:44:17.640Z,-2.10
2018-02-15T05:46:43.825Z,-2.10
2018-02-15T05:49:10.044Z,-2.20
2018-02-15T05:51:36.224Z,-2.20
2018-02-15T05:54:02.450Z,-2.20
2018-02-15T05:56:28.644Z,-2.30
2018-02-15T05:58:54.860Z,-2.30
2018-02-15T06:01:21.084Z,-2.30
2018-02-15T06:03:47.300Z,-2.30
2018-02-15T06:06:13.488Z,-2.40
2018-02-15T06:08:39.703Z,-2.50
2018-02-15T06:11:05.892Z,-2.50
2018-02-15T06:13:32.112Z,-2.50
2018-02-15T06:15:58.369Z,-2.50
2018-02-15T06:18:31.475Z,-2.50
2018-02-15T06:20:57.668Z,-2.50
2018-02-15T06:23:23.900Z,-2.60
2018-02-15T06:25:50.087Z,-2.60
2018-02-15T06:28:17.050Z,-2.50
2018-02-15T06:30:43.979Z,-2.50
2018-02-15T06:33:10.948Z,-2.50
2018-02-15T06:35:37.871Z,-2.50
2018-02-15T06:38:04.812Z,-2.50
2018-02-15T06:40:31.041Z,-2.50
2018-02-15T06:42:57.228Z,-2.50
2018-02-15T06:45:23.460Z,-2.50
2018-02-15T06:47:49.648Z,-2.50
2018-02-15T06:50:16.612Z,-2.50
2018-02-15T06:52:43.062Z,-2.50
2018-02-15T06:55:09.275Z,-2.60
2018-02-15T06:57:35.459Z,-2.50
2018-02-15T07:00:01.691Z,-2.50
2018-02-15T07:02:27.947Z,-2.60
2018-02-15T07:04:54.904Z,-2.60
2018-02-15T07:07:21.152Z,-2.60
2018-02-15T07:09:47.372Z,-2.60
2018-02-15T07:12:13.636Z,-2.60
2018-02-15T07:14:39.853Z,-2.60
2018-02-15T07:17:06.040Z,-2.50
2018-02-15T07:19:33.000Z,-2.40
2018-02-15T07:21:59.188Z,-2.40
2018-02-15T07:24:25.409Z,-2.20
2018-02-15T07:26:51.603Z,-1.90
2018-02-15T07:29:17.820Z,-1.60
2018-02-15T07:31:44.016Z,-1.30
2018-02-15T07:34:10.988Z,-1.20
2018-02-15T07:36:37.167Z,-1.30
2018-02-15T07:39:03.407Z,-1.30
2018-02-15T07:41:29.631Z,-1.20
2018-02-15T07:43:55.815Z,-1.20
2018-02-15T07:46:22.041Z,-1.10
2018-02-15T07:48:48.315Z,-1.10
2018-02-15T07:51:14.557Z,-0.90
2018-02-15T07:53:40.768Z,-0.80
2018-02-15T07:56:06.999Z,-0.80
2018-02-15T07:58:33.218Z,-0.70
2018-02-15T08:00:59.463Z,-0.70
2018-02-15T08:03:25.656Z,-0.70
2018-02-15T08:05:51.848Z,-0.70
2018-02-15T08:08:18.809Z,-0.80
2018-02-15T08:10:45.021Z,-0.80
2018-02-15T08:13:11.983Z,-0.90
2018-02-15T08:15:38.174Z,-0.90
2018-02-15T08:18:04.408Z,-1.00
2018-02-15T08:20:30.624Z,-0.90
2018-02-15T08:22:57.076Z,-1.00
2018-02-15T08:25:24.009Z,-1.00
2018-02-15T08:27:50.227Z,-1.00
2018-02-15T08:30:16.454Z,-1.00
2018-02-15T08:32:42.881Z,-0.90
2018-02-15T08:35:09.069Z,-1.00
2018-02-15T08:37:35.272Z,-0.90
2018-02-15T08:40:02.245Z,-0.90
2018-02-15T08:42:28.427Z,-0.90
2018-02-15T08:44:54.648Z,-0.90
2018-02-15T08:47:20.828Z,-0.80
2018-02-15T08:49:47.049Z,-0.80
2018-02-15T08:52:13.326Z,-0.80
2018-02-15T08:54:39.531Z,-0.70
2018-02-15T08:57:05.720Z,-0.70
2018-02-15T08:59:32.684Z,-0.50
2018-02-15T09:01:58.917Z,-0.50
2018-02-15T09:04:25.885Z,-0.40
2018-02-15T09:06:52.072Z,-0.40
2018-02-15T09:09:19.029Z,-0.30
2018-02-15T09:11:45.968Z,-0.30
2018-02-15T09:14:12.926Z,-0.30
2018-02-15T09:16:39.851Z,-0.10
2018-02-15T09:19:07.303Z,0.00
2018-02-15T09:21:33.500Z,0.00
2018-02-15T09:23:59.711Z,-0.10
2018-02-15T09:26:25.900Z,0.20
2018-02-15T09:28:52.864Z,0.30
2018-02-15T09:31:19.072Z,0.30
2018-02-15T09:33:53.000Z,0.50
2018-02-15T09:36:19.200Z,0.50
2018-02-15T09:38:45.411Z,0.50
2018-02-15T09:41:11.602Z,0.70
2018-02-15T09:43:38.143Z,0.80
2018-02-15T09:46:04.328Z,0.90
2018-02-15T09:48:30.516Z,0.90
2018-02-15T09:50:56.739Z,0.90
2018-02-15T09:53:22.924Z,0.70
2018-02-15T09:55:49.879Z,0.90
2018-02-15T09:58:16.812Z,0.80
2018-02-15T10:00:43.832Z,0.90
2018-02-15T10:03:10.031Z,0.80
2018-02-15T10:05:36.247Z,0.80
2018-02-15T10:08:02.432Z,0.80
2018-02-15T10:10:28.660Z,0.70
2018-02-15T10:12:54.854Z,0.70
2018-02-15T10:15:21.072Z,0.80
2018-02-15T10:17:47.268Z,0.80
2018-02-15T10:20:14.228Z,0.90
2018-02-15T10:22:40.420Z,0.80
2018-02-15T10:25:06.704Z,0.90
2018-02-15T10:27:32.900Z,1.00
2018-02-15T10:29:59.929Z,0.90
2018-02-15T10:32:27.088Z,0.90
2018-02-15T10:34:54.049Z,1.00
2018-02-15T10:37:20.975Z,1.10
2018-02-15T10:39:47.193Z,1.10
2018-02-15T10:42:13.385Z,1.10
2018-02-15T10:44:39.603Z,1.00
2018-02-15T10:47:05.796Z,1.10
2018-02-15T10:49:32.752Z,1.20
2018-02-15T10:51:59.695Z,1.10
2018-02-15T10:54:25.943Z,1.10
2018-02-15T10:56:52.195Z,1.10
2018-02-15T10:59:18.415Z,1.00
2018-02-15T11:01:44.656Z,1.00
2018-02-15T11:04:17.092Z,1.10
2018-02-15T11:06:44.029Z,1.30
2018-02-15T11:09:10.988Z,1.30
2018-02-15T11:11:37.911Z,1.30
2018-02-15T11:14:04.179Z,1.30
2018-02-15T11:16:30.371Z,1.40
2018-02-15T11:18:57.304Z,1.50
2018-02-15T11:21:24.267Z,1.60
2018-02-15T11:23:51.203Z,1.70
2018-02-15T11:26:17.420Z,1.70
2018-02-15T11:28:43.608Z,1.70
2018-02-15T11:31:09.892Z,1.70
2018-02-15T11:33:37.560Z,1.80
2018-02-15T11:36:04.596Z,1.80
2018-02-15T11:38:30.791Z,1.80
2018-02-15T11:40:57.016Z,1.90
2018-02-15T11:43:23.209Z,1.90
2018-02-15T11:45:50.176Z,2.00
2018-02-15T11:48:16.359Z,2.00
2018-02-15T11:50:42.603Z,2.00
2018-02-15T11:53:09.896Z,1.80
2018-02-15T11:55:36.104Z,1.80
2018-02-15T11:58:02.296Z,1.70
2018-02-15T12:00:28.549Z,1.70
2018-02-15T12:02:55.480Z,1.70
2018-02-15T12:05:21.703Z,1.70
2018-02-15T12:07:47.895Z,1.50
2018-02-15T12:10:14.113Z,1.50
2018-02-15T12:12:40.312Z,1.50
2018-02-15T12:15:07.282Z,1.10
2018-02-15T12:17:33.469Z,1.10
2018-02-15T12:19:59.666Z,1.00
2018-02-15T12:22:25.943Z,1.00
2018-02-15T12:24:52.867Z,1.00
2018-02-15T12:27:19.142Z,1.00
2018-02-15T12:29:45.342Z,1.10
2018-02-15T12:32:12.299Z,1.30
2018-02-15T12:34:39.220Z,1.40
2018-02-15T12:37:05.439Z,1.40
2018-02-15T12:39:31.639Z,1.50
2018-02-15T12:41:57.859Z,1.50
2018-02-15T12:44:24.171Z,1.50
2018-02-15T12:46:50.404Z,1.50
2018-02-15T12:49:16.597Z,1.50
2018-02-15T12:51:42.825Z,1.40
2018-02-15T12:54:09.760Z,1.40
2018-02-15T12:56:35.973Z,1.40
2018-02-15T12:59:02.183Z,1.40
2018-02-15T13:01:28.472Z,1.40
2018-02-15T13:03:55.412Z,1.40
2018-02-15T13:06:22.360Z,1.40
2018-02-15T13:08:49.315Z,1.40
2018-02-15T13:11:16.250Z,1.30
2018-02-15T13:13:43.212Z,1.30
2018-02-15T13:16:22.573Z,1.30
2018-02-15T13:19:01.268Z,1.30
2018-02-15T13:21:28.204Z,1.40
2018-02-15T13:23:55.171Z,1.50
2018-02-15T13:26:21.360Z,1.50
2018-02-15T13:28:47.579Z,1.50
2018-02-15T13:31:13.768Z,1.50
2018-02-15T13:33:39.984Z,1.50
2018-02-15T13:36:06.184Z,1.50
2018-02-15T13:38:33.151Z,1.70
2018-02-15T13:41:00.084Z,1.80
2018-02-15T13:43:27.053Z,1.90
2018-02-15T13:45:54.136Z,1.80
2018-02-15T13:48:20.711Z,1.90
2018-02-15T13:50:47.644Z,2.00
2018-02-15T13:53:13.864Z,2.00
2018-02-15T13:55:40.056Z,1.90
2018-02-15T13:58:06.271Z,1.90
2018-02-15T14:00:32.476Z,1.80
2018-02-15T14:02:59.485Z,1.70
2018-02-15T14:05:25.699Z,1.70
2018-02-15T14:07:52.024Z,1.70
2018-02-15T14:10:18.219Z,1.60
2018-02-15T14:12:45.428Z,1.50
2018-02-15T14:15:11.616Z,1.50
2018-02-15T14:17:37.812Z,1.40
2018-02-15T14:20:04.027Z,1.30
2018-02-15T14:22:30.220Z,1.20
2018-02-15T14:24:56.444Z,1.10
2018-02-15T14:27:22.937Z,1.00
2018-02-15T14:29:49.903Z,0.80
2018-02-15T14:32:16.102Z,0.80
2018-02-15T14:34:42.328Z,0.60
2018-02-15T14:37:10.009Z,0.30
2018-02-15T14:39:36.972Z,0.10
2018-02-15T14:42:03.160Z,0.10
2018-02-15T14:44:29.452Z,0.00
2018-02-15T14:46:55.652Z,-0.10
2018-02-15T14:49:22.607Z,-0.20
2018-02-15T14:51:48.804Z,-0.20
2018-02-15T14:54:15.775Z,-0.30
2018-02-15T14:56:42.707Z,-0.30
2018-02-15T14:59:09.669Z,-0.30
2018-02-15T15:01:36.632Z,-0.30
2018-02-15T15:04:02.849Z,-0.30
2018-02-15T15:06:29.040Z,-0.20
2018-02-15T15:08:55.270Z,-0.20
2018-02-15T15:11:21.456Z,-0.20
2018-02-15T15:13:47.699Z,-0.20
2018-02-15T15:16:13.956Z,-0.20
2018-02-15T15:18:40.204Z,-0.20
2018-02-15T15:21:07.127Z,-0.10
2018-02-15T15:23:33.316Z,-0.10
2018-02-15T15:25:59.563Z,-0.10
2018-02-15T15:28:25.753Z,-0.10
2018-02-15T15:30:51.976Z,-0.10
2018-02-15T15:33:18.916Z,-0.10
2018-02-15T15:35:45.935Z,-0.20
2018-02-15T15:38:12.868Z,-0.20
2018-02-15T15:40:39.079Z,-0.20
2018-02-15T15:43:05.268Z,-0.20
2018-02-15T15:45:32.232Z,-0.30
2018-02-15T15:47:58.419Z,-0.30
2018-02-15T15:50:25.063Z,-0.30
2018-02-15T15:52:51.257Z,-0.30
2018-02-15T15:55:17.456Z,-0.30
2018-02-15T15:57:43.708Z,-0.20
2018-02-15T16:00:09.904Z,-0.30
2018-02-15T16:02:36.897Z,-0.30
2018-02-15T16:05:03.091Z,-0.30
2018-02-15T16:07:29.311Z,-0.20
2018-02-15T16:09:55.508Z,-0.20
2018-02-15T16:12:21.727Z,-0.20
2018-02-15T16:14:48.684Z,-0.20
2018-02-15T16:17:14.908Z,-0.20
2018-02-15T16:19:41.095Z,-0.20
2018-02-15T16:22:07.311Z,-0.10
2018-02-15T16:24:33.497Z,-0.20
2018-02-15T16:26:59.758Z,-0.20
2018-02-15T16:29:25.996Z,-0.20
2018-02-15T16:31:52.939Z,-0.20
2018-02-15T16:34:19.188Z,-0.20
2018-02-15T16:36:45.424Z,-0.20
2018-02-15T16:39:11.608Z,-0.20
2018-02-15T16:41:38.540Z,-0.20
2018-02-15T16:44:04.764Z,-0.20
2018-02-15T16:46:30.952Z,-0.20
2018-02-15T16:48:57.172Z,-0.20
2018-02-15T16:51:23.364Z,-0.20
2018-02-15T16:53:50.315Z,-0.10
2018-02-15T16:56:17.244Z,-0.10
2018-02-15T16:58:43.468Z,-0.10
2018-02-15T17:01:09.692Z,-0.10
2018-02-15T17:03:35.915Z,-0.10
2018-02-15T17:06:02.108Z,-0.10
2018-02-15T17:08:28.327Z,-0.10
2018-02-15T17:10:54.547Z,0.00
2018-02-15T17:13:20.760Z,0.00
2018-02-15T17:15:47.745Z,0.00
2018-02-15T17:18:13.956Z,0.00
2018-02-15T17:20:40.140Z,0.00
2018-02-15T17:23:06.404Z,0.00
2018-02-15T17:25:33.349Z,0.00
2018-02-15T17:28:00.276Z,0.00
2018-02-15T17:30:27.240Z,0.00
2018-02-15T17:32:54.168Z,0.10
2018-02-15T17:35:21.128Z,0.10
2018-02-15T17:37:48.083Z,0.00
2018-02-15T17:40:14.324Z,0.00
2018-02-15T17:42:40.516Z,0.00
2018-02-15T17:45:07.799Z,0.00
2018-02-15T17:47:33.993Z,0.00
2018-02-15T17:50:00.187Z,-0.10
2018-02-15T17:52:26.399Z,-0.10
2018-02-15T17:54:52.588Z,-0.10
2018-02-15T17:57:19.548Z,-0.20
2018-02-15T17:59:46.479Z,-0.30
2018-02-15T18:02:13.475Z,-0.30
2018-02-15T18:04:39.663Z,-0.30
2018-02-15T18:07:06.627Z,-0.50
2018-02-15T18:09:32.816Z,-0.50
2018-02-15T18:11:59.037Z,-0.50
2018-02-15T18:14:25.227Z,-0.50
2018-02-15T18:16:51.424Z,-0.50
2018-02-15T18:19:18.388Z,-0.50
2018-02-15T18:21:44.575Z,-0.50
2018-02-15T18:24:10.791Z,-0.50
2018-02-15T18:26:36.984Z,-0.50
2018-02-15T18:29:03.203Z,-0.50
2018-02-15T18:31:29.396Z,-0.50
2018-02-15T18:33:55.747Z,-0.50
2018-02-15T18:36:22.680Z,-0.50
2018-02-15T18:38:49.616Z,-0.60
2018-02-15T18:41:15.836Z,-0.60
2018-02-15T18:43:42.032Z,-0.60
2018-02-15T18:46:08.264Z,-0.60
2018-02-15T18:48:34.456Z,-0.60
2018-02-15T18:51:01.419Z,-0.60
2018-02-15T18:53:27.616Z,-0.60
2018-02-15T18:55:54.575Z,-0.60
2018-02-15T18:58:21.504Z,-0.60
2018-02-15T19:00:47.728Z,-0.60
2018-02-15T19:03:13.943Z,-0.60
2018-02-15T19:05:40.172Z,-0.50
2018-02-15T19:08:06.355Z,-0.50
2018-02-15T19:10:32.580Z,-0.40
2018-02-15T19:12:58.776Z,-0.40
2018-02-15T19:15:25.028Z,-0.40
2018-02-15T19:17:51.259Z,-0.40
2018-02-15T19:20:17.480Z,-0.40
2018-02-15T19:22:44.468Z,-0.40
2018-02-15T19:25:10.683Z,-0.40
2018-02-15T19:27:36.876Z,-0.40
2018-02-15T19:30:03.848Z,-0.40
2018-02-15T19:32:30.046Z,-0.40
2018-02-15T19:34:57.021Z,-0.40
2018-02-15T19:37:23.213Z,-0.40
2018-02-15T19:39:49.404Z,-0.40
2018-02-15T19:42:15.626Z,-0.40
2018-02-15T19:44:41.816Z,-0.40
2018-02-15T19:47:08.776Z,-0.40
2018-02-15T19:49:35.032Z,-0.50
2018-02-15T19:52:01.259Z,-0.40
2018-02-15T19:54:27.447Z,-0.40
2018-02-15T19:56:54.736Z,-0.40
2018-02-15T19:59:20.932Z,-0.40
2018-02-15T20:01:47.923Z,-0.40
2018-02-15T20:04:14.108Z,-0.40
2018-02-15T20:06:41.068Z,-0.40
2018-02-15T20:09:07.260Z,-0.40
2018-02-15T20:11:33.504Z,-0.40
2018-02-15T20:14:00.435Z,-0.40
2018-02-15T20:16:26.669Z,-0.40
2018-02-15T20:18:53.612Z,-0.40
2018-02-15T20:21:19.840Z,-0.40
2018-02-15T20:23:46.027Z,-0.30
2018-02-15T20:29:13.974Z,-0.30
2018-02-15T20:31:41.036Z,-0.30
2018-02-15T20:34:07.228Z,-0.30
2018-02-15T20:36:33.412Z,-0.30
2018-02-15T20:39:05.961Z,-0.20
2018-02-15T20:41:32.888Z,-0.20
2018-02-15T20:43:59.147Z,-0.30
2018-02-15T20:46:25.356Z,-0.20
2018-02-15T20:48:52.325Z,-0.20
2018-02-15T20:51:24.539Z,-0.20
2018-02-15T20:53:56.955Z,-0.20
2018-02-15T20:56:23.952Z,-0.20
2018-02-15T20:58:50.169Z,-0.30
2018-02-15T21:01:16.360Z,-0.20
2018-02-15T21:03:43.343Z,-0.20
2018-02-15T21:06:09.574Z,-0.20
2018-02-15T21:08:35.801Z,-0.20
2018-02-15T21:11:02.020Z,-0.10
2018-02-15T21:13:28.384Z,-0.10
2018-02-15T21:15:54.572Z,-0.10
2018-02-15T21:18:20.761Z,-0.10
2018-02-15T21:20:46.976Z,-0.10
2018-02-15T21:23:13.160Z,-0.10
2018-02-15T21:25:39.385Z,0.00
2018-02-15T21:28:05.571Z,0.00
2018-02-15T21:30:31.806Z,0.10
2018-02-15T21:32:57.995Z,0.10
2018-02-15T21:35:24.216Z,0.10
2018-02-15T21:37:50.448Z,0.10
2018-02-15T21:40:16.676Z,0.10
2018-02-15T21:42:42.863Z,0.10
2018-02-15T21:45:09.827Z,0.20
2018-02-15T21:47:36.003Z,0.20
2018-02-15T21:50:02.220Z,0.20
2018-02-15T21:52:28.447Z,0.20
2018-02-15T21:54:54.637Z,0.30
2018-02-15T21:57:20.856Z,0.30
2018-02-15T21:59:47.786Z,0.30
2018-02-15T22:02:14.036Z,0.30
2018-02-15T22:04:40.968Z,0.30
2018-02-15T22:07:07.924Z,0.20
2018-02-15T22:09:34.869Z,0.20
2018-02-15T22:12:01.823Z,0.20
2018-02-15T22:14:28.768Z,0.30
2018-02-15T22:16:55.724Z,0.30
2018-02-15T22:19:21.928Z,0.20
2018-02-15T22:21:48.924Z,0.30
2018-02-15T22:24:15.112Z,0.30
2018-02-15T22:26:42.061Z,0.30
2018-02-15T22:29:09.020Z,0.30
2018-02-15T22:31:35.232Z,0.30
2018-02-15T22:34:02.187Z,0.40
2018-02-15T22:36:29.111Z,0.40
2018-02-15T22:38:55.348Z,0.40
2018-02-15T22:41:22.276Z,0.40
2018-02-15T22:43:48.487Z,0.40
2018-02-15T22:46:14.696Z,0.40
2018-02-15T22:48:40.919Z,0.40
2018-02-15T22:51:07.143Z,0.40
2018-02-15T22:53:33.340Z,0.40
2018-02-15T22:56:00.305Z,0.40
2018-02-15T22:58:26.524Z,0.40
2018-02-15T23:00:53.452Z,0.40
2018-02-15T23:03:20.435Z,0.40
2018-02-15T23:05:46.628Z,0.40
2018-02-15T23:08:13.748Z,0.40
2018-02-15T23:10:39.932Z,0.40
2018-02-15T23:13:06.128Z,0.40
2018-02-15T23:15:32.350Z,0.40
2018-02-15T23:17:58.544Z,0.40
2018-02-15T23:20:24.764Z,0.40
2018-02-15T23:22:50.948Z,0.40
2018-02-15T23:25:17.160Z,0.40
2018-02-15T23:27:43.368Z,0.40
2018-02-15T23:30:09.708Z,0.40
2018-02-15T23:32:35.909Z,0.40
2018-02-15T23:35:02.124Z,0.40
2018-02-15T23:37:28.345Z,0.40
2018-02-15T23:39:54.531Z,0.50
2018-02-15T23:42:20.743Z,0.50
2018-02-15T23:44:46.928Z,0.50
2018-02-15T23:47:13.880Z,0.50
2018-02-15T23:49:40.059Z,0.50
2018-02-15T23:52:06.271Z,0.50
2018-02-15T23:54:32.451Z,0.60
2018-02-15T23:56:58.768Z,0.60
2018-02-15T23:59:24.956Z,0.60
